»·PEaware :: N101JP KSDM-KCMA

N101JP :: KSDM-KCMA

FLIGHT INFORMATION

Flight Status: Arrived
Operator: Privately registered:
United States
More flights under this callsign
Pilot: James T. (870)
Aircraft: PILATUS PC-12 EAGLE
(PC12)
More flights by this aircraft type
Origin: KSDM Brown Mun
United States
Destination: KCMA Camarillo
United States
More flights between these airports :: More routes between these airports
Route: MZB293 V27 SXC V208 VTU
File this flight plan on PilotEdge
Remarks:
Altitude:
(Current/Filed)
80ft
Speed:
(Current/Filed)
200kts
Departed: 13-Nov-16 11:26 AM
Arrived: 13-Nov-16 12:50 PM
Distance/Time
Traveled:
144nm/1:24
Distance/Time
To Go:
Arrived

Flight Plot

Page will automatically refresh every two minutes.

Flight plan parsing failed; only flown route is shown


Map Options




Map Legend


Flown Route
Filed Route
Departure Airport
Arrival Airport
Navaid (VOR, NDB)
Fix

Horizontal Profiles

Position Reports

Time Latitude Longitude Heading Altitude Ground
Speed
13-Nov-16 11:04 32.571215 -116.991981 281 531ft 0kts
13-Nov-16 11:05 32.571215 -116.991981 281 531ft 0kts
13-Nov-16 11:06 32.571215 -116.991981 281 531ft 0kts
13-Nov-16 11:07 32.571218 -116.991995 280 531ft 0kts
13-Nov-16 11:08 32.571218 -116.991995 280 531ft 0kts
13-Nov-16 11:09 32.571218 -116.991995 280 531ft 0kts
13-Nov-16 11:10 32.571218 -116.991995 280 531ft 0kts
13-Nov-16 11:11 32.571218 -116.991995 280 531ft 0kts
13-Nov-16 11:12 32.571218 -116.991995 280 531ft 0kts
13-Nov-16 11:13 32.571218 -116.991995 280 531ft 0kts
13-Nov-16 11:14 32.571218 -116.991995 280 531ft 0kts
13-Nov-16 11:15 32.571247 -116.992127 288 531ft 5kts
13-Nov-16 11:16 32.572910 -116.993323 7 531ft 0kts
13-Nov-16 11:17 32.572910 -116.993323 7 531ft 0kts
13-Nov-16 11:18 32.572910 -116.993323 7 531ft 0kts
13-Nov-16 11:19 32.573696 -116.992733 95 530ft 0kts
13-Nov-16 11:20 32.570999 -116.975040 103 830ft 131kts
13-Nov-16 11:41 32.571348 -116.992732 282 531ft 0kts
13-Nov-16 11:42 32.571348 -116.992732 282 531ft 0kts
13-Nov-16 11:43 32.571348 -116.992732 282 531ft 0kts
13-Nov-16 11:44 32.571348 -116.992732 282 531ft 0kts
13-Nov-16 11:45 32.571395 -116.992831 326 531ft 2kts
13-Nov-16 11:46 32.572903 -116.993411 5 531ft 0kts
13-Nov-16 11:47 32.573670 -116.992370 95 530ft 16kts
13-Nov-16 11:48 32.572179 -116.963920 81 1144ft 149kts
13-Nov-16 11:49 32.602857 -116.972410 291 2781ft 171kts
13-Nov-16 11:50 32.621518 -117.031096 291 3007ft 207kts
13-Nov-16 11:51 32.642267 -117.096410 291 2995ft 218kts
13-Nov-16 11:52 32.663720 -117.165252 290 2992ft 219kts
13-Nov-16 11:53 32.697750 -117.219187 352 2969ft 213kts
13-Nov-16 11:54 32.756171 -117.222925 357 2988ft 210kts
13-Nov-16 11:55 32.804536 -117.248614 293 2957ft 207kts
13-Nov-16 11:56 32.833917 -117.306016 307 2994ft 203kts
13-Nov-16 11:57 32.868993 -117.358783 308 2994ft 203kts
13-Nov-16 11:58 32.904216 -117.411647 309 2995ft 203kts
13-Nov-16 11:59 32.939685 -117.464452 307 2996ft 204kts
13-Nov-16 12:00 32.974543 -117.517982 307 2994ft 205kts
13-Nov-16 12:01 33.009692 -117.571912 308 2992ft 205kts
13-Nov-16 12:02 33.044716 -117.625679 308 2990ft 205kts
13-Nov-16 12:03 33.073501 -117.670177 307 4517ft 148kts
13-Nov-16 12:04 33.100685 -117.712752 308 6111ft 167kts
13-Nov-16 12:05 33.128563 -117.757181 308 7806ft 167kts
13-Nov-16 12:06 33.157898 -117.804411 308 8001ft 186kts
13-Nov-16 12:07 33.190701 -117.856370 309 8012ft 209kts
13-Nov-16 12:08 33.227965 -117.913163 310 8023ft 221kts
13-Nov-16 12:09 33.266837 -117.970885 310 8040ft 223kts
13-Nov-16 12:10 33.299494 -118.032681 282 8059ft 226kts
13-Nov-16 12:11 33.308606 -118.107079 296 8062ft 224kts
13-Nov-16 12:12 33.352037 -118.157739 287 8012ft 227kts
13-Nov-16 12:13 33.353513 -118.233111 279 8079ft 225kts
13-Nov-16 12:14 33.362355 -118.307784 279 8069ft 226kts
13-Nov-16 12:15 33.370837 -118.382239 279 8057ft 226kts
13-Nov-16 12:16 33.395868 -118.448642 310 8056ft 222kts
13-Nov-16 12:17 33.435261 -118.505453 311 8036ft 222kts
13-Nov-16 12:18 33.472828 -118.559069 311 8035ft 222kts
13-Nov-16 12:19 33.514988 -118.619266 311 8035ft 222kts
13-Nov-16 12:20 33.554570 -118.675871 311 8036ft 222kts
13-Nov-16 12:21 33.594331 -118.732828 311 8037ft 222kts
13-Nov-16 12:22 33.634142 -118.789954 311 8027ft 223kts
13-Nov-16 12:23 33.674000 -118.847219 311 8009ft 224kts
13-Nov-16 12:24 33.713521 -118.904102 311 7980ft 209kts
13-Nov-16 12:25 33.748331 -118.954239 312 7985ft 190kts
13-Nov-16 12:26 33.782203 -119.003044 311 7983ft 192kts
13-Nov-16 12:27 33.830287 -119.019555 355 7978ft 180kts
13-Nov-16 12:28 33.878439 -119.024656 355 7979ft 168kts
13-Nov-16 12:29 33.910553 -118.992788 55 7981ft 162kts
13-Nov-16 12:30 33.935854 -118.947717 54 7988ft 173kts
13-Nov-16 12:31 33.964652 -118.896707 55 7989ft 190kts
13-Nov-16 12:32 33.995135 -118.842639 55 7984ft 201kts
13-Nov-16 12:33 34.023186 -118.792815 55 8008ft 200kts
13-Nov-16 12:34 34.072985 -118.777453 345 7063ft 206kts
13-Nov-16 12:35 34.130458 -118.793147 355 5559ft 212kts
13-Nov-16 12:36 34.187315 -118.799301 355 4109ft 211kts
13-Nov-16 12:37 34.227739 -118.826722 273 3361ft 195kts
13-Nov-16 12:38 34.225615 -118.884678 266 3111ft 156kts
13-Nov-16 12:39 34.222890 -118.928689 266 2778ft 113kts
13-Nov-16 12:40 34.220485 -118.966715 266 2179ft 112kts
13-Nov-16 12:41 34.218182 -119.002876 266 1546ft 106kts
13-Nov-16 12:42 34.215998 -119.037071 266 949ft 103kts
13-Nov-16 12:43 34.213832 -119.070745 266 364ft 101kts
13-Nov-16 12:44 34.213736 -119.094198 265 83ft 12kts
13-Nov-16 12:45 34.212856 -119.095627 195 83ft 0kts
13-Nov-16 12:46 34.210151 -119.094380 114 79ft 3kts
13-Nov-16 12:47 34.210221 -119.094255 20 79ft 0kts
13-Nov-16 12:48 34.210221 -119.094255 20 79ft 0kts

Navigation Log

Ident Type
Flight plan parsing failed, navigation log unavailable